sensor_id;sensor_type;location;lat;lon;timestamp;temperature;humidity
11264;DHT22;5689;48.798;9.070;2022-09-09T00:01:04;16.50;99.90
11264;DHT22;5689;48.798;9.070;2022-09-09T00:03:43;16.50;99.90
11264;DHT22;5689;48.798;9.070;2022-09-09T00:06:20;16.40;99.90
11264;DHT22;5689;48.798;9.070;2022-09-09T00:08:56;16.40;99.90
11264;DHT22;5689;48.798;9.070;2022-09-09T00:11:40;16.40;99.90
11264;DHT22;5689;48.798;9.070;2022-09-09T00:14:16;16.40;99.90
11264;DHT22;5689;48.798;9.070;2022-09-09T00:16:51;16.40;99.90
11264;DHT22;5689;48.798;9.070;2022-09-09T00:19:28;16.50;99.90
11264;DHT22;5689;48.798;9.070;2022-09-09T00:22:06;16.60;99.90
11264;DHT22;5689;48.798;9.070;2022-09-09T00:24:40;16.60;99.90
11264;DHT22;5689;48.798;9.070;2022-09-09T00:27:16;16.60;99.90
11264;DHT22;5689;48.798;9.070;2022-09-09T00:29:47;16.50;99.90
11264;DHT22;5689;48.798;9.070;2022-09-09T00:32:21;16.50;99.90
11264;DHT22;5689;48.798;9.070;2022-09-09T00:34:55;16.60;99.90
11264;DHT22;5689;48.798;9.070;2022-09-09T00:37:26;16.60;99.90
11264;DHT22;5689;48.798;9.070;2022-09-09T00:39:59;16.60;99.90
11264;DHT22;5689;48.798;9.070;2022-09-09T00:42:35;16.60;99.90
11264;DHT22;5689;48.798;9.070;2022-09-09T00:45:17;16.70;99.90
11264;DHT22;5689;48.798;9.070;2022-09-09T00:47:50;16.70;99.90
11264;DHT22;5689;48.798;9.070;2022-09-09T00:50:41;16.80;99.90
11264;DHT22;5689;48.798;9.070;2022-09-09T00:53:19;16.80;99.90
11264;DHT22;5689;48.798;9.070;2022-09-09T00:55:56;16.80;99.90
11264;DHT22;5689;48.798;9.070;2022-09-09T00:58:26;16.80;99.90
11264;DHT22;5689;48.798;9.070;2022-09-09T01:00:59;16.90;99.90
11264;DHT22;5689;48.798;9.070;2022-09-09T01:03:34;17.00;99.90
11264;DHT22;5689;48.798;9.070;2022-09-09T01:06:13;17.20;99.90
11264;DHT22;5689;48.798;9.070;2022-09-09T01:08:56;17.20;99.90
11264;DHT22;5689;48.798;9.070;2022-09-09T01:11:36;17.20;99.90
11264;DHT22;5689;48.798;9.070;2022-09-09T01:14:14;17.30;99.90
11264;DHT22;5689;48.798;9.070;2022-09-09T01:16:45;17.30;99.90
11264;DHT22;5689;48.798;9.070;2022-09-09T01:19:20;17.40;99.90
11264;DHT22;5689;48.798;9.070;2022-09-09T01:22:03;17.40;99.90
11264;DHT22;5689;48.798;9.070;2022-09-09T01:24:39;17.40;99.90
11264;DHT22;5689;48.798;9.070;2022-09-09T01:27:19;17.40;99.90
11264;DHT22;5689;48.798;9.070;2022-09-09T01:29:48;17.50;99.90
11264;DHT22;5689;48.798;9.070;2022-09-09T01:32:37;17.50;99.90
11264;DHT22;5689;48.798;9.070;2022-09-09T01:35:08;17.50;99.90
11264;DHT22;5689;48.798;9.070;2022-09-09T01:37:37;17.40;99.90
11264;DHT22;5689;48.798;9.070;2022-09-09T01:40:07;17.30;99.90
11264;DHT22;5689;48.798;9.070;2022-09-09T01:42:38;17.20;99.90
11264;DHT22;5689;48.798;9.070;2022-09-09T01:45:08;17.10;99.90
11264;DHT22;5689;48.798;9.070;2022-09-09T01:47:36;17.00;99.90
11264;DHT22;5689;48.798;9.070;2022-09-09T01:50:14;17.00;99.90
11264;DHT22;5689;48.798;9.070;2022-09-09T01:52:43;17.00;99.90
11264;DHT22;5689;48.798;9.070;2022-09-09T01:55:13;17.00;99.90
11264;DHT22;5689;48.798;9.070;2022-09-09T01:57:49;16.90;99.90
11264;DHT22;5689;48.798;9.070;2022-09-09T02:00:19;16.90;99.90
11264;DHT22;5689;48.798;9.070;2022-09-09T02:03:00;16.80;99.90
11264;DHT22;5689;48.798;9.070;2022-09-09T02:05:38;16.70;99.90
11264;DHT22;5689;48.798;9.070;2022-09-09T02:08:35;16.70;99.90
11264;DHT22;5689;48.798;9.070;2022-09-09T02:11:12;16.70;99.90
11264;DHT22;5689;48.798;9.070;2022-09-09T02:13:49;16.60;99.90
11264;DHT22;5689;48.798;9.070;2022-09-09T02:16:23;16.70;99.90
11264;DHT22;5689;48.798;9.070;2022-09-09T02:18:57;16.60;99.90
11264;DHT22;5689;48.798;9.070;2022-09-09T02:21:42;16.50;99.90
11264;DHT22;5689;48.798;9.070;2022-09-09T02:24:14;16.50;99.90
11264;DHT22;5689;48.798;9.070;2022-09-09T02:26:52;16.40;99.90
11264;DHT22;5689;48.798;9.070;2022-09-09T02:29:26;16.40;99.90
11264;DHT22;5689;48.798;9.070;2022-09-09T02:31:59;16.40;99.90
11264;DHT22;5689;48.798;9.070;2022-09-09T02:34:35;16.40;99.90
11264;DHT22;5689;48.798;9.070;2022-09-09T02:37:05;16.30;99.90
11264;DHT22;5689;48.798;9.070;2022-09-09T02:39:34;16.30;99.90
11264;DHT22;5689;48.798;9.070;2022-09-09T02:42:04;16.30;99.90
11264;DHT22;5689;48.798;9.070;2022-09-09T02:44:35;16.20;99.90
11264;DHT22;5689;48.798;9.070;2022-09-09T02:47:25;16.20;99.90
11264;DHT22;5689;48.798;9.070;2022-09-09T02:50:08;16.00;99.90
11264;DHT22;5689;48.798;9.070;2022-09-09T02:52:55;16.00;99.90
11264;DHT22;5689;48.798;9.070;2022-09-09T02:55:37;15.90;99.90
11264;DHT22;5689;48.798;9.070;2022-09-09T02:58:09;15.90;99.90
11264;DHT22;5689;48.798;9.070;2022-09-09T03:00:41;15.70;99.90
11264;DHT22;5689;48.798;9.070;2022-09-09T03:03:09;15.70;99.90
11264;DHT22;5689;48.798;9.070;2022-09-09T03:05:38;15.60;99.90
11264;DHT22;5689;48.798;9.070;2022-09-09T03:08:07;15.60;99.90
11264;DHT22;5689;48.798;9.070;2022-09-09T03:10:36;15.60;99.90
11264;DHT22;5689;48.798;9.070;2022-09-09T03:13:04;15.60;99.90
11264;DHT22;5689;48.798;9.070;2022-09-09T03:15:37;15.60;99.90
11264;DHT22;5689;48.798;9.070;2022-09-09T03:18:09;15.50;99.90
11264;DHT22;5689;48.798;9.070;2022-09-09T03:20:37;15.50;99.90
11264;DHT22;5689;48.798;9.070;2022-09-09T03:23:05;15.50;99.90
11264;DHT22;5689;48.798;9.070;2022-09-09T03:25:34;15.50;99.90
11264;DHT22;5689;48.798;9.070;2022-09-09T03:28:03;15.50;99.90
11264;DHT22;5689;48.798;9.070;2022-09-09T03:30:31;15.50;99.90
11264;DHT22;5689;48.798;9.070;2022-09-09T03:32:59;15.50;99.90
11264;DHT22;5689;48.798;9.070;2022-09-09T03:35:32;15.50;99.90
11264;DHT22;5689;48.798;9.070;2022-09-09T03:38:01;15.50;99.90
11264;DHT22;5689;48.798;9.070;2022-09-09T03:40:31;15.50;99.90
11264;DHT22;5689;48.798;9.070;2022-09-09T03:42:59;15.50;99.90
11264;DHT22;5689;48.798;9.070;2022-09-09T03:45:28;15.50;99.90
11264;DHT22;5689;48.798;9.070;2022-09-09T03:47:56;15.50;99.90
11264;DHT22;5689;48.798;9.070;2022-09-09T03:50:24;15.50;99.90
11264;DHT22;5689;48.798;9.070;2022-09-09T03:52:54;15.60;99.90
11264;DHT22;5689;48.798;9.070;2022-09-09T03:55:22;15.80;99.90
11264;DHT22;5689;48.798;9.070;2022-09-09T03:57:50;15.80;99.90
11264;DHT22;5689;48.798;9.070;2022-09-09T04:00:18;15.80;99.90
11264;DHT22;5689;48.798;9.070;2022-09-09T04:02:51;15.80;99.90
11264;DHT22;5689;48.798;9.070;2022-09-09T04:05:22;15.90;99.90
11264;DHT22;5689;48.798;9.070;2022-09-09T04:07:50;16.00;99.90
11264;DHT22;5689;48.798;9.070;2022-09-09T04:10:20;16.00;99.90
11264;DHT22;5689;48.798;9.070;2022-09-09T04:12:48;16.00;99.90
11264;DHT22;5689;48.798;9.070;2022-09-09T04:15:16;16.10;99.90
11264;DHT22;5689;48.798;9.070;2022-09-09T04:17:44;16.10;99.90
11264;DHT22;5689;48.798;9.070;2022-09-09T04:20:12;16.10;99.90
11264;DHT22;5689;48.798;9.070;2022-09-09T04:22:41;16.10;99.90
11264;DHT22;5689;48.798;9.070;2022-09-09T04:25:08;16.20;99.90
11264;DHT22;5689;48.798;9.070;2022-09-09T04:27:39;16.10;99.90
11264;DHT22;5689;48.798;9.070;2022-09-09T04:30:08;16.20;99.90
11264;DHT22;5689;48.798;9.070;2022-09-09T04:32:36;16.20;99.90
11264;DHT22;5689;48.798;9.070;2022-09-09T04:35:05;16.10;99.90
11264;DHT22;5689;48.798;9.070;2022-09-09T04:37:33;16.10;99.90
11264;DHT22;5689;48.798;9.070;2022-09-09T04:40:01;16.10;99.90
11264;DHT22;5689;48.798;9.070;2022-09-09T04:42:34;16.00;99.90
11264;DHT22;5689;48.798;9.070;2022-09-09T04:45:05;16.00;99.90
11264;DHT22;5689;48.798;9.070;2022-09-09T04:47:33;15.90;99.90
11264;DHT22;5689;48.798;9.070;2022-09-09T04:50:03;15.80;99.90
11264;DHT22;5689;48.798;9.070;2022-09-09T04:52:33;15.90;99.90
11264;DHT22;5689;48.798;9.070;2022-09-09T04:55:02;15.90;99.90
11264;DHT22;5689;48.798;9.070;2022-09-09T04:57:30;15.90;99.90
11264;DHT22;5689;48.798;9.070;2022-09-09T04:59:58;15.80;99.90
11264;DHT22;5689;48.798;9.070;2022-09-09T05:02:33;15.80;99.90
11264;DHT22;5689;48.798;9.070;2022-09-09T05:05:05;15.80;99.90
11264;DHT22;5689;48.798;9.070;2022-09-09T05:07:33;15.90;99.90
11264;DHT22;5689;48.798;9.070;2022-09-09T05:10:01;15.90;99.90
11264;DHT22;5689;48.798;9.070;2022-09-09T05:12:31;15.90;99.90
11264;DHT22;5689;48.798;9.070;2022-09-09T05:14:59;16.00;99.90
11264;DHT22;5689;48.798;9.070;2022-09-09T05:17:27;16.10;99.90
11264;DHT22;5689;48.798;9.070;2022-09-09T05:19:56;16.10;99.90
11264;DHT22;5689;48.798;9.070;2022-09-09T05:22:25;16.10;99.90
11264;DHT22;5689;48.798;9.070;2022-09-09T05:24:53;16.30;99.90
11264;DHT22;5689;48.798;9.070;2022-09-09T05:27:21;16.30;99.90
11264;DHT22;5689;48.798;9.070;2022-09-09T05:29:49;16.30;99.90
11264;DHT22;5689;48.798;9.070;2022-09-09T05:32:17;16.40;99.90
11264;DHT22;5689;48.798;9.070;2022-09-09T05:34:48;16.60;99.90
11264;DHT22;5689;48.798;9.070;2022-09-09T05:37:18;16.80;99.90
11264;DHT22;5689;48.798;9.070;2022-09-09T05:39:46;16.70;99.90
11264;DHT22;5689;48.798;9.070;2022-09-09T05:42:15;16.70;99.90
11264;DHT22;5689;48.798;9.070;2022-09-09T05:44:44;16.60;99.90
11264;DHT22;5689;48.798;9.070;2022-09-09T05:47:12;16.60;99.90
11264;DHT22;5689;48.798;9.070;2022-09-09T05:49:41;16.60;99.90
11264;DHT22;5689;48.798;9.070;2022-09-09T05:52:09;16.70;99.90
11264;DHT22;5689;48.798;9.070;2022-09-09T05:54:39;16.80;99.90
11264;DHT22;5689;48.798;9.070;2022-09-09T05:57:08;16.90;99.90
11264;DHT22;5689;48.798;9.070;2022-09-09T05:59:37;16.90;99.90
11264;DHT22;5689;48.798;9.070;2022-09-09T06:02:05;16.90;99.90
11264;DHT22;5689;48.798;9.070;2022-09-09T06:04:35;16.90;99.90
11264;DHT22;5689;48.798;9.070;2022-09-09T06:07:04;16.90;99.90
11264;DHT22;5689;48.798;9.070;2022-09-09T06:09:32;16.90;99.90
11264;DHT22;5689;48.798;9.070;2022-09-09T06:12:02;17.00;99.90
11264;DHT22;5689;48.798;9.070;2022-09-09T06:14:34;17.00;99.90
11264;DHT22;5689;48.798;9.070;2022-09-09T06:17:02;16.90;99.90
11264;DHT22;5689;48.798;9.070;2022-09-09T06:19:30;17.00;99.90
11264;DHT22;5689;48.798;9.070;2022-09-09T06:21:59;16.90;99.90
11264;DHT22;5689;48.798;9.070;2022-09-09T06:24:29;17.00;99.90
11264;DHT22;5689;48.798;9.070;2022-09-09T06:27:01;16.80;99.90
11264;DHT22;5689;48.798;9.070;2022-09-09T06:29:33;16.70;99.90
11264;DHT22;5689;48.798;9.070;2022-09-09T06:32:02;16.60;99.90
11264;DHT22;5689;48.798;9.070;2022-09-09T06:34:30;16.80;99.90
11264;DHT22;5689;48.798;9.070;2022-09-09T06:37:00;16.70;99.90
11264;DHT22;5689;48.798;9.070;2022-09-09T06:39:42;16.80;99.90
11264;DHT22;5689;48.798;9.070;2022-09-09T06:42:12;16.90;99.90
11264;DHT22;5689;48.798;9.070;2022-09-09T06:44:42;17.00;99.90
11264;DHT22;5689;48.798;9.070;2022-09-09T06:47:16;17.10;99.90
11264;DHT22;5689;48.798;9.070;2022-09-09T06:49:45;17.30;99.90
11264;DHT22;5689;48.798;9.070;2022-09-09T06:52:14;17.40;99.90
11264;DHT22;5689;48.798;9.070;2022-09-09T06:54:45;17.40;99.90
11264;DHT22;5689;48.798;9.070;2022-09-09T06:57:16;17.50;99.90
11264;DHT22;5689;48.798;9.070;2022-09-09T07:00:01;17.50;99.90
11264;DHT22;5689;48.798;9.070;2022-09-09T07:02:31;17.70;99.90
11264;DHT22;5689;48.798;9.070;2022-09-09T07:05:07;17.70;99.90
11264;DHT22;5689;48.798;9.070;2022-09-09T07:07:35;17.80;99.90
11264;DHT22;5689;48.798;9.070;2022-09-09T07:10:05;17.90;99.90
11264;DHT22;5689;48.798;9.070;2022-09-09T07:12:36;17.80;99.90
11264;DHT22;5689;48.798;9.070;2022-09-09T07:15:09;17.90;99.90
11264;DHT22;5689;48.798;9.070;2022-09-09T07:17:40;17.90;99.90
11264;DHT22;5689;48.798;9.070;2022-09-09T07:20:09;18.30;99.90
11264;DHT22;5689;48.798;9.070;2022-09-09T07:22:38;19.10;99.90
11264;DHT22;5689;48.798;9.070;2022-09-09T07:25:08;19.10;99.90
11264;DHT22;5689;48.798;9.070;2022-09-09T07:27:37;19.10;99.90
11264;DHT22;5689;48.798;9.070;2022-09-09T07:30:07;19.10;99.90
11264;DHT22;5689;48.798;9.070;2022-09-09T07:32:35;20.00;99.90
11264;DHT22;5689;48.798;9.070;2022-09-09T07:35:03;21.50;99.90
11264;DHT22;5689;48.798;9.070;2022-09-09T07:37:32;21.70;99.90
11264;DHT22;5689;48.798;9.070;2022-09-09T07:40:00;21.80;99.90
11264;DHT22;5689;48.798;9.070;2022-09-09T07:42:29;21.60;99.90
11264;DHT22;5689;48.798;9.070;2022-09-09T07:44:58;20.80;99.90
11264;DHT22;5689;48.798;9.070;2022-09-09T07:47:26;20.00;99.90
11264;DHT22;5689;48.798;9.070;2022-09-09T07:49:54;20.50;99.90
11264;DHT22;5689;48.798;9.070;2022-09-09T07:52:28;22.40;99.90
11264;DHT22;5689;48.798;9.070;2022-09-09T07:54:59;23.50;99.90
11264;DHT22;5689;48.798;9.070;2022-09-09T07:57:29;24.80;99.90
11264;DHT22;5689;48.798;9.070;2022-09-09T07:59:58;25.10;98.60
11264;DHT22;5689;48.798;9.070;2022-09-09T08:02:27;25.30;97.50
11264;DHT22;5689;48.798;9.070;2022-09-09T08:04:56;24.50;97.70
11264;DHT22;5689;48.798;9.070;2022-09-09T08:07:24;23.10;98.70
11264;DHT22;5689;48.798;9.070;2022-09-09T08:09:54;22.50;99.80
11264;DHT22;5689;48.798;9.070;2022-09-09T08:12:30;22.70;99.90
11264;DHT22;5689;48.798;9.070;2022-09-09T08:15:01;24.50;97.50
11264;DHT22;5689;48.798;9.070;2022-09-09T08:17:32;24.80;97.30
11264;DHT22;5689;48.798;9.070;2022-09-09T08:20:05;26.50;95.20
11264;DHT22;5689;48.798;9.070;2022-09-09T08:22:34;28.10;90.90
11264;DHT22;5689;48.798;9.070;2022-09-09T08:25:05;28.30;90.00
11264;DHT22;5689;48.798;9.070;2022-09-09T08:27:36;29.10;84.80
11264;DHT22;5689;48.798;9.070;2022-09-09T08:30:08;27.00;88.50
11264;DHT22;5689;48.798;9.070;2022-09-09T08:32:36;24.70;92.40
11264;DHT22;5689;48.798;9.070;2022-09-09T08:35:05;24.80;93.00
11264;DHT22;5689;48.798;9.070;2022-09-09T08:37:34;25.80;93.20
11264;DHT22;5689;48.798;9.070;2022-09-09T08:40:02;27.10;90.00
11264;DHT22;5689;48.798;9.070;2022-09-09T08:42:38;27.60;86.30
11264;DHT22;5689;48.798;9.070;2022-09-09T08:45:22;28.20;84.60
11264;DHT22;5689;48.798;9.070;2022-09-09T08:48:00;28.90;83.20
11264;DHT22;5689;48.798;9.070;2022-09-09T08:50:34;28.00;82.10
11264;DHT22;5689;48.798;9.070;2022-09-09T08:53:11;26.20;85.80
11264;DHT22;5689;48.798;9.070;2022-09-09T08:55:44;26.70;85.70
11264;DHT22;5689;48.798;9.070;2022-09-09T08:58:16;26.80;83.90
11264;DHT22;5689;48.798;9.070;2022-09-09T09:01:12;26.40;82.20
11264;DHT22;5689;48.798;9.070;2022-09-09T09:03:53;26.20;84.10
11264;DHT22;5689;48.798;9.070;2022-09-09T09:06:35;25.50;86.20
11264;DHT22;5689;48.798;9.070;2022-09-09T09:09:11;24.00;90.10
11264;DHT22;5689;48.798;9.070;2022-09-09T09:11:45;23.50;90.30
11264;DHT22;5689;48.798;9.070;2022-09-09T09:14:18;22.40;91.70
11264;DHT22;5689;48.798;9.070;2022-09-09T09:16:54;21.50;94.70
11264;DHT22;5689;48.798;9.070;2022-09-09T09:19:24;20.60;98.10
11264;DHT22;5689;48.798;9.070;2022-09-09T09:22:02;20.60;99.00
11264;DHT22;5689;48.798;9.070;2022-09-09T09:24:44;20.70;99.70
11264;DHT22;5689;48.798;9.070;2022-09-09T09:27:15;20.60;99.90
11264;DHT22;5689;48.798;9.070;2022-09-09T09:29:49;20.50;99.90
11264;DHT22;5689;48.798;9.070;2022-09-09T09:32:40;20.40;99.90
11264;DHT22;5689;48.798;9.070;2022-09-09T09:35:12;21.50;99.90
11264;DHT22;5689;48.798;9.070;2022-09-09T09:37:41;23.80;96.90
11264;DHT22;5689;48.798;9.070;2022-09-09T09:40:33;25.20;92.00
11264;DHT22;5689;48.798;9.070;2022-09-09T09:43:01;26.00;85.90
11264;DHT22;5689;48.798;9.070;2022-09-09T09:45:41;25.80;85.00
11264;DHT22;5689;48.798;9.070;2022-09-09T09:48:14;26.10;81.70
11264;DHT22;5689;48.798;9.070;2022-09-09T09:50:48;26.00;79.50
11264;DHT22;5689;48.798;9.070;2022-09-09T09:53:21;26.70;79.30
11264;DHT22;5689;48.798;9.070;2022-09-09T09:55:55;27.50;76.10
11264;DHT22;5689;48.798;9.070;2022-09-09T09:58:25;27.60;75.60
11264;DHT22;5689;48.798;9.070;2022-09-09T10:00:55;27.60;74.90
11264;DHT22;5689;48.798;9.070;2022-09-09T10:03:29;27.40;74.80
11264;DHT22;5689;48.798;9.070;2022-09-09T10:05:58;27.20;77.20
11264;DHT22;5689;48.798;9.070;2022-09-09T10:08:28;27.60;77.10
11264;DHT22;5689;48.798;9.070;2022-09-09T10:11:12;28.20;74.90
11264;DHT22;5689;48.798;9.070;2022-09-09T10:13:50;28.00;76.70
11264;DHT22;5689;48.798;9.070;2022-09-09T10:16:29;28.00;76.30
11264;DHT22;5689;48.798;9.070;2022-09-09T10:19:05;28.10;75.60
11264;DHT22;5689;48.798;9.070;2022-09-09T10:21:56;28.00;74.10
11264;DHT22;5689;48.798;9.070;2022-09-09T10:24:41;29.10;73.50
11264;DHT22;5689;48.798;9.070;2022-09-09T10:27:20;29.40;71.70
11264;DHT22;5689;48.798;9.070;2022-09-09T10:30:06;29.60;70.40
11264;DHT22;5689;48.798;9.070;2022-09-09T10:32:40;29.70;69.10
11264;DHT22;5689;48.798;9.070;2022-09-09T10:35:14;30.80;67.90
11264;DHT22;5689;48.798;9.070;2022-09-09T10:41:09;30.90;63.90
11264;DHT22;5689;48.798;9.070;2022-09-09T10:44:15;31.70;62.80
11264;DHT22;5689;48.798;9.070;2022-09-09T10:47:08;29.70;64.10
11264;DHT22;5689;48.798;9.070;2022-09-09T10:50:05;30.90;60.50
11264;DHT22;5689;48.798;9.070;2022-09-09T10:52:47;28.60;65.10
11264;DHT22;5689;48.798;9.070;2022-09-09T10:55:20;25.50;75.30
11264;DHT22;5689;48.798;9.070;2022-09-09T10:57:57;23.80;85.60
11264;DHT22;5689;48.798;9.070;2022-09-09T11:00:35;24.10;86.20
11264;DHT22;5689;48.798;9.070;2022-09-09T11:03:05;23.20;89.10
11264;DHT22;5689;48.798;9.070;2022-09-09T11:05:41;21.70;93.60
11264;DHT22;5689;48.798;9.070;2022-09-09T11:08:13;20.70;99.90
11264;DHT22;5689;48.798;9.070;2022-09-09T11:10:46;20.00;99.90
11264;DHT22;5689;48.798;9.070;2022-09-09T11:13:23;19.70;99.90
11264;DHT22;5689;48.798;9.070;2022-09-09T11:15:56;20.20;99.90
11264;DHT22;5689;48.798;9.070;2022-09-09T11:18:29;20.70;99.90
11264;DHT22;5689;48.798;9.070;2022-09-09T11:20:59;21.40;99.90
11264;DHT22;5689;48.798;9.070;2022-09-09T11:23:34;21.40;97.80
11264;DHT22;5689;48.798;9.070;2022-09-09T11:26:10;21.10;98.00
11264;DHT22;5689;48.798;9.070;2022-09-09T11:28:54;20.40;97.60
11264;DHT22;5689;48.798;9.070;2022-09-09T11:31:44;19.70;99.10
11264;DHT22;5689;48.798;9.070;2022-09-09T11:34:27;19.30;99.90
11264;DHT22;5689;48.798;9.070;2022-09-09T11:37:12;19.50;99.90
11264;DHT22;5689;48.798;9.070;2022-09-09T11:39:57;19.40;99.90
11264;DHT22;5689;48.798;9.070;2022-09-09T11:42:28;19.60;99.90
11264;DHT22;5689;48.798;9.070;2022-09-09T11:44:56;20.20;99.90
11264;DHT22;5689;48.798;9.070;2022-09-09T11:47:28;19.40;99.90
11264;DHT22;5689;48.798;9.070;2022-09-09T11:50:22;19.60;99.90
11264;DHT22;5689;48.798;9.070;2022-09-09T11:53:06;19.50;99.90
11264;DHT22;5689;48.798;9.070;2022-09-09T11:55:44;19.80;99.90
11264;DHT22;5689;48.798;9.070;2022-09-09T11:58:17;20.30;99.60
11264;DHT22;5689;48.798;9.070;2022-09-09T12:00:48;20.60;99.90
11264;DHT22;5689;48.798;9.070;2022-09-09T12:03:39;22.90;96.40
11264;DHT22;5689;48.798;9.070;2022-09-09T12:06:13;25.00;92.70
11264;DHT22;5689;48.798;9.070;2022-09-09T12:08:44;25.50;90.40
11264;DHT22;5689;48.798;9.070;2022-09-09T12:11:24;26.20;87.50
11264;DHT22;5689;48.798;9.070;2022-09-09T12:13:54;26.20;86.90
11264;DHT22;5689;48.798;9.070;2022-09-09T12:16:31;26.90;82.70
11264;DHT22;5689;48.798;9.070;2022-09-09T12:19:07;26.20;85.00
11264;DHT22;5689;48.798;9.070;2022-09-09T12:21:46;26.40;83.30
11264;DHT22;5689;48.798;9.070;2022-09-09T12:24:19;26.80;79.40
11264;DHT22;5689;48.798;9.070;2022-09-09T12:26:56;25.60;79.00
11264;DHT22;5689;48.798;9.070;2022-09-09T12:29:31;24.90;82.70
11264;DHT22;5689;48.798;9.070;2022-09-09T12:32:06;25.20;82.70
11264;DHT22;5689;48.798;9.070;2022-09-09T12:34:39;25.80;81.40
11264;DHT22;5689;48.798;9.070;2022-09-09T12:37:15;26.50;79.50
11264;DHT22;5689;48.798;9.070;2022-09-09T12:39:49;26.30;79.90
11264;DHT22;5689;48.798;9.070;2022-09-09T12:42:21;26.50;78.50
11264;DHT22;5689;48.798;9.070;2022-09-09T12:44:56;27.20;77.80
11264;DHT22;5689;48.798;9.070;2022-09-09T12:47:30;26.80;78.50
11264;DHT22;5689;48.798;9.070;2022-09-09T12:50:00;28.10;76.00
11264;DHT22;5689;48.798;9.070;2022-09-09T12:52:31;29.50;70.00
11264;DHT22;5689;48.798;9.070;2022-09-09T12:55:02;28.20;71.40
11264;DHT22;5689;48.798;9.070;2022-09-09T12:57:35;28.30;71.80
11264;DHT22;5689;48.798;9.070;2022-09-09T13:00:07;28.40;70.80
11264;DHT22;5689;48.798;9.070;2022-09-09T13:02:45;26.30;73.70
11264;DHT22;5689;48.798;9.070;2022-09-09T13:05:16;24.30;79.40
11264;DHT22;5689;48.798;9.070;2022-09-09T13:07:45;25.40;78.10
11264;DHT22;5689;48.798;9.070;2022-09-09T13:10:17;24.70;77.90
11264;DHT22;5689;48.798;9.070;2022-09-09T13:12:52;23.70;80.30
11264;DHT22;5689;48.798;9.070;2022-09-09T13:15:23;24.50;81.60
11264;DHT22;5689;48.798;9.070;2022-09-09T13:17:55;27.30;73.80
11264;DHT22;5689;48.798;9.070;2022-09-09T13:20:24;28.40;70.00
11264;DHT22;5689;48.798;9.070;2022-09-09T13:22:53;28.50;70.70
11264;DHT22;5689;48.798;9.070;2022-09-09T13:25:24;27.90;71.60
11264;DHT22;5689;48.798;9.070;2022-09-09T13:27:59;29.70;67.40
11264;DHT22;5689;48.798;9.070;2022-09-09T13:30:30;29.70;66.70
11264;DHT22;5689;48.798;9.070;2022-09-09T13:33:05;28.80;67.40
11264;DHT22;5689;48.798;9.070;2022-09-09T13:35:36;27.60;70.40
11264;DHT22;5689;48.798;9.070;2022-09-09T13:38:14;25.70;73.60
11264;DHT22;5689;48.798;9.070;2022-09-09T13:40:52;24.10;77.20
11264;DHT22;5689;48.798;9.070;2022-09-09T13:43:24;23.90;77.50
11264;DHT22;5689;48.798;9.070;2022-09-09T13:45:55;23.00;81.10
11264;DHT22;5689;48.798;9.070;2022-09-09T13:48:25;23.30;79.20
11264;DHT22;5689;48.798;9.070;2022-09-09T13:50:58;23.40;80.10
11264;DHT22;5689;48.798;9.070;2022-09-09T13:53:27;24.30;74.90
11264;DHT22;5689;48.798;9.070;2022-09-09T13:55:56;25.90;69.00
11264;DHT22;5689;48.798;9.070;2022-09-09T13:58:27;25.00;73.30
11264;DHT22;5689;48.798;9.070;2022-09-09T14:00:55;25.40;70.20
11264;DHT22;5689;48.798;9.070;2022-09-09T14:03:24;24.10;73.50
11264;DHT22;5689;48.798;9.070;2022-09-09T14:05:53;23.50;75.50
11264;DHT22;5689;48.798;9.070;2022-09-09T14:08:26;24.30;75.20
11264;DHT22;5689;48.798;9.070;2022-09-09T14:10:55;24.20;76.60
11264;DHT22;5689;48.798;9.070;2022-09-09T14:13:27;25.40;73.30
11264;DHT22;5689;48.798;9.070;2022-09-09T14:15:56;26.40;71.50
11264;DHT22;5689;48.798;9.070;2022-09-09T14:18:24;27.30;69.10
11264;DHT22;5689;48.798;9.070;2022-09-09T14:20:52;28.20;66.10
11264;DHT22;5689;48.798;9.070;2022-09-09T14:23:20;27.80;64.70
11264;DHT22;5689;48.798;9.070;2022-09-09T14:25:49;29.40;59.90
11264;DHT22;5689;48.798;9.070;2022-09-09T14:28:17;27.10;62.50
11264;DHT22;5689;48.798;9.070;2022-09-09T14:30:47;25.00;67.00
11264;DHT22;5689;48.798;9.070;2022-09-09T14:33:16;23.70;70.40
11264;DHT22;5689;48.798;9.070;2022-09-09T14:35:44;22.90;72.90
11264;DHT22;5689;48.798;9.070;2022-09-09T14:38:12;23.00;73.30
11264;DHT22;5689;48.798;9.070;2022-09-09T14:40:45;24.00;73.10
11264;DHT22;5689;48.798;9.070;2022-09-09T14:43:13;26.20;68.20
11264;DHT22;5689;48.798;9.070;2022-09-09T14:45:42;26.00;67.20
11264;DHT22;5689;48.798;9.070;2022-09-09T14:48:12;25.80;66.90
11264;DHT22;5689;48.798;9.070;2022-09-09T14:50:41;26.60;64.40
11264;DHT22;5689;48.798;9.070;2022-09-09T14:53:10;26.00;66.50
11264;DHT22;5689;48.798;9.070;2022-09-09T14:55:41;25.10;69.00
11264;DHT22;5689;48.798;9.070;2022-09-09T14:58:10;24.40;69.60
11264;DHT22;5689;48.798;9.070;2022-09-09T15:00:38;22.90;73.10
11264;DHT22;5689;48.798;9.070;2022-09-09T15:03:06;23.10;73.10
11264;DHT22;5689;48.798;9.070;2022-09-09T15:05:36;23.00;74.20
11264;DHT22;5689;48.798;9.070;2022-09-09T15:08:04;22.30;75.70
11264;DHT22;5689;48.798;9.070;2022-09-09T15:10:32;22.40;75.60
11264;DHT22;5689;48.798;9.070;2022-09-09T15:13:00;22.70;76.10
11264;DHT22;5689;48.798;9.070;2022-09-09T15:15:28;22.70;75.60
11264;DHT22;5689;48.798;9.070;2022-09-09T15:17:56;22.50;76.10
11264;DHT22;5689;48.798;9.070;2022-09-09T15:20:24;22.40;75.30
11264;DHT22;5689;48.798;9.070;2022-09-09T15:22:54;22.20;77.40
11264;DHT22;5689;48.798;9.070;2022-09-09T15:25:23;22.30;77.00
11264;DHT22;5689;48.798;9.070;2022-09-09T15:27:52;22.20;77.50
11264;DHT22;5689;48.798;9.070;2022-09-09T15:30:20;22.30;77.80
11264;DHT22;5689;48.798;9.070;2022-09-09T15:32:48;23.20;75.50
11264;DHT22;5689;48.798;9.070;2022-09-09T15:35:19;23.00;77.20
11264;DHT22;5689;48.798;9.070;2022-09-09T15:37:47;23.00;77.30
11264;DHT22;5689;48.798;9.070;2022-09-09T15:40:17;23.10;78.20
11264;DHT22;5689;48.798;9.070;2022-09-09T15:42:45;23.00;76.10
11264;DHT22;5689;48.798;9.070;2022-09-09T15:45:13;22.80;76.70
11264;DHT22;5689;48.798;9.070;2022-09-09T15:47:41;22.10;78.80
11264;DHT22;5689;48.798;9.070;2022-09-09T15:50:10;21.60;80.00
11264;DHT22;5689;48.798;9.070;2022-09-09T15:52:38;21.50;80.30
11264;DHT22;5689;48.798;9.070;2022-09-09T15:55:06;21.60;79.40
11264;DHT22;5689;48.798;9.070;2022-09-09T15:57:37;21.50;79.60
11264;DHT22;5689;48.798;9.070;2022-09-09T16:00:06;21.50;79.60
11264;DHT22;5689;48.798;9.070;2022-09-09T16:02:35;21.30;80.80
11264;DHT22;5689;48.798;9.070;2022-09-09T16:05:04;21.30;80.50
11264;DHT22;5689;48.798;9.070;2022-09-09T16:07:32;21.40;80.20
11264;DHT22;5689;48.798;9.070;2022-09-09T16:10:02;21.40;80.70
11264;DHT22;5689;48.798;9.070;2022-09-09T16:12:31;21.50;80.90
11264;DHT22;5689;48.798;9.070;2022-09-09T16:15:00;21.40;81.60
11264;DHT22;5689;48.798;9.070;2022-09-09T16:17:29;21.00;83.60
11264;DHT22;5689;48.798;9.070;2022-09-09T16:19:56;20.90;83.50
11264;DHT22;5689;48.798;9.070;2022-09-09T16:22:25;20.80;83.10